EFHKEFTP

Guest
Details From EFHK - Helsinki Vantaa
To EFTP - Tampere Pirkkala
Flight Number -
Tags Generated
Created
Modified
Stats Distance 76 nm / 141 km
Max Altitude 0 ft / 0 m
Waypoints 2
Social Downloads 2
Likes 0
Share VATSIM

Download

Looking for another format? Having issues loading an existing format? Contact us
Advertisement - Login to hide

Notes

Generated

Route

EFHK EFTP

ID Type Via Altitude Latitude Longitude Leg Dist Tot Dist Heading (true) Name
O EFHK APT - 0 ft / 0 m 60.33028˚ 24.96450˚ - 0 nm - -
O EFTP APT - 0 ft / 0 m 61.40892˚ 23.58159˚ 76 nm 76 nm 329° / 327° -

Altitude Profile

Advertisement - Login to hide

EFHK

Details ICAO EFHK (HEL)
Name Helsinki Vantaa
Region Finland
Timezone Europe/Helsinki (UTC+2.0)
Stats Elevation 179 ft / 55 m (AMSL)
Location 60.320569° 24.952668°
Runways 3
Magnetic Variation 8.955° E

METAR

EFHK 162250Z 34002KT 1300 R04R/P1500N R15/P1500N R22L/P1500N R04L/P1500N BR OVC001 00/M00 Q1003 TEMPO 2500

Decode

TAF

TAF TAF EFHK 162031Z 1621/1721 29003KT 9000 SCT002 BKN030 TEMPO 1621/1705 2000 BR BKN002 PROB30 1622/1703 0500 FZFG BKN001 BECMG 1705/1707 BKN005 TEMPO 1709/1712 SCT005 BKN050 BECMG 1712/1714 FEW015 BKN040

Decode

Departure Runways

ID Width Length Bearing (true) Bearing (mag) Surface Threshold Offset Overrun Length
04L 197 ft / 60 m 9,817 ft / 2,992 m 47.43° 38.48° Asphalt 800 ft / 244 m 0 ft / 0 m
04R 197 ft / 60 m 10,472 ft / 3,192 m 47.46° 38.51° Asphalt 262 ft / 80 m 0 ft / 0 m
15 197 ft / 60 m 9,497 ft / 2,895 m 153.08° 144.13° Asphalt 0 ft / 0 m 198 ft / 60 m
22L 197 ft / 60 m 10,472 ft / 3,192 m 227.50° 218.55° Asphalt 0 ft / 0 m 197 ft / 60 m
22R 197 ft / 60 m 9,817 ft / 2,992 m 227.46° 218.51° Asphalt 912 ft / 278 m 0 ft / 0 m
33 197 ft / 60 m 9,497 ft / 2,895 m 333.10° 324.15° Asphalt 0 ft / 0 m 197 ft / 60 m

EFTP

Details ICAO EFTP (TMP)
Name Tampere Pirkkala
Region Finland
Timezone Europe/Helsinki (UTC+2.0)
Stats Elevation 390 ft / 119 m (AMSL)
Location 61.414145° 23.604397°
Runways 1
Magnetic Variation 8.757° E

METAR

EFTP 162250Z AUTO VRB02KT 9999 FEW005 BKN007 OVC010 00/00 Q1003

Decode

TAF

TAF EFTP 162031Z 1621/1721 32002KT 8000 SCT003 BKN007 TEMPO 1621/1703 2000 BR BKN002 TEMPO 1703/1707 7000 SCT007 BKN020 BECMG 1707/1709 SCT015 TEMPO 1717/1721 BKN009

Decode

Destination Runways

ID Width Length Bearing (true) Bearing (mag) Surface Threshold Offset Overrun Length
06 148 ft / 45 m 8,831 ft / 2,692 m 64.40° 55.64° Asphalt 0 ft / 0 m 801 ft / 244 m
24 148 ft / 45 m 8,831 ft / 2,692 m 244.45° 235.69° Asphalt 0 ft / 0 m 640 ft / 195 m

Approach Navaids

Runway Type Ident Frequency Range Bearing (true) Bearing (mag) Slope Elevation
24 Localiser TP 109.70 MHz 18 nm / 33 km 244.40° 235.64° - 390 ft / 119 m (AMSL)
24 Glidescope TP 109.70 MHz 10 nm / 19 km 244.43° 235.67° 3.00° 390 ft / 119 m (AMSL)

Popular Alternatives